Time;durP1;ratioP1;P1;durP2;ratioP2;P2;SDS_P1;SDS_P2;PMS_P1;PMS_P2;Temp;Humidity;BMP_temperature;BMP_pressure;BME280_temperature;BME280_humidity;BME280_pressure;Samples;Min_cycle;Max_cycle;Signal;HPM_P1;HPM_P2
2021/07/01 00:01:00;;;;;;;0.20;0.20;;;;;;;14.30;97.14;100303.06;5029033;28;20061;-89
2021/07/01 00:03:34;;;;;;;0.20;0.20;;;;;;;14.37;96.72;100305.38;5046878;28;20045;-88
2021/07/01 00:06:08;;;;;;;0.20;0.20;;;;;;;14.29;96.29;100279.56;5028570;28;20072;-87
2021/07/01 00:08:43;;;;;;;0.20;0.20;;;;;;;14.32;97.00;100298.09;5047388;28;20056;-89
2021/07/01 00:11:17;;;;;;;0.20;0.20;;;;;;;14.29;96.80;100295.97;5027987;28;20052;-88
2021/07/01 00:13:50;;;;;;;0.20;0.20;;;;;;;14.25;96.71;100294.97;5047171;28;20489;-88
2021/07/01 00:16:25;;;;;;;0.20;0.20;;;;;;;14.21;96.78;100292.09;5046933;28;20045;-88
2021/07/01 00:18:58;;;;;;;0.20;0.20;;;;;;;14.27;96.61;100287.28;5044810;28;20061;-83
2021/07/01 00:21:32;;;;;;;0.20;0.20;;;;;;;14.28;96.62;100295.19;5045031;28;20680;-90
2021/07/01 00:24:06;;;;;;;0.20;0.20;;;;;;;14.26;97.02;100289.19;5027949;28;20053;-88
2021/07/01 00:26:42;;;;;;;0.20;0.20;;;;;;;14.23;96.65;100283.56;5038796;28;20056;-87
2021/07/01 00:29:10;;;;;;;0.20;0.20;;;;;;;14.28;96.91;100283.44;5031636;28;20053;-87
2021/07/01 00:31:45;;;;;;;0.20;0.20;;;;;;;14.25;96.71;100275.81;5048230;28;20045;-88
2021/07/01 00:34:19;;;;;;;0.20;0.20;;;;;;;14.27;96.75;100279.88;5047626;28;20370;-89
2021/07/01 00:36:52;;;;;;;0.20;0.20;;;;;;;14.25;96.68;100276.66;5044609;28;20049;-87
2021/07/01 00:39:27;;;;;;;0.10;0.10;;;;;;;14.26;96.91;100271.97;5026138;28;20688;-86
2021/07/01 00:42:00;;;;;;;0.20;0.20;;;;;;;14.23;96.57;100275.34;5047381;28;20060;-87
2021/07/01 00:44:33;;;;;;;0.20;0.20;;;;;;;14.21;97.05;100278.41;5031293;28;20049;-87
2021/07/01 00:47:08;;;;;;;0.20;0.20;;;;;;;14.22;96.83;100269.06;5031909;28;20057;-87
2021/07/01 00:49:37;;;;;;;0.13;0.13;;;;;;;14.30;97.24;100275.69;5050392;28;20053;-87
2021/07/01 00:52:10;;;;;;;0.20;0.20;;;;;;;14.17;96.98;100269.22;5031460;28;20471;-86
2021/07/01 00:54:44;;;;;;;0.20;0.20;;;;;;;14.19;97.59;100266.94;5031916;28;20135;-87
2021/07/01 00:57:17;;;;;;;0.20;0.20;;;;;;;14.22;97.91;100263.56;5028324;28;20796;-88
2021/07/01 00:59:51;;;;;;;0.10;0.10;;;;;;;14.25;98.26;100267.63;5030478;28;20046;-89
2021/07/01 01:02:26;;;;;;;0.25;0.22;;;;;;;14.24;97.81;100266.03;5011631;28;20413;-87
2021/07/01 01:05:00;;;;;;;0.20;0.20;;;;;;;14.28;97.75;100262.34;5017819;28;20053;-86
2021/07/01 01:07:35;;;;;;;0.20;0.20;;;;;;;14.27;97.17;100274.41;5027800;28;20496;-89
2021/07/01 01:10:09;;;;;;;0.10;0.10;;;;;;;14.32;97.34;100258.97;5050326;28;20056;-86
2021/07/01 01:12:39;;;;;;;0.20;0.20;;;;;;;14.35;97.19;100272.84;5031524;28;20063;-88
2021/07/01 01:15:13;;;;;;;0.20;0.20;;;;;;;14.26;97.13;100267.31;5036211;28;20049;-87
2021/07/01 01:17:44;;;;;;;0.20;0.20;;;;;;;14.26;97.25;100267.31;5047967;28;20064;-86
2021/07/01 01:20:18;;;;;;;0.10;0.10;;;;;;;14.24;98.02;100263.28;5044170;28;20049;-88
2021/07/01 01:22:53;;;;;;;0.20;0.20;;;;;;;14.18;97.89;100248.09;5030334;28;20059;-88
2021/07/01 01:25:27;;;;;;;0.17;0.17;;;;;;;14.17;97.69;100251.97;5049724;28;20045;-88
2021/07/01 01:28:00;;;;;;;0.20;0.20;;;;;;;14.31;97.51;100268.28;5049886;28;20053;-89
2021/07/01 01:30:37;;;;;;;0.20;0.20;;;;;;;14.29;97.55;100266.69;5033243;28;20053;-89
2021/07/01 01:33:12;;;;;;;0.20;0.20;;;;;;;14.26;97.29;100259.09;5027654;28;20045;-87
2021/07/01 01:35:46;;;;;;;0.20;0.20;;;;;;;14.28;98.11;100264.28;5010246;28;20064;-87
2021/07/01 01:38:21;;;;;;;0.20;0.20;;;;;;;14.24;97.91;100244.13;5014900;28;20063;-86
2021/07/01 01:40:58;;;;;;;0.20;0.20;;;;;;;14.28;97.69;100267.00;5030928;28;20504;-87
2021/07/01 01:43:31;;;;;;;0.17;0.17;;;;;;;14.27;98.27;100260.72;5030943;28;20059;-88
2021/07/01 01:46:06;;;;;;;0.13;0.13;;;;;;;14.32;98.25;100258.97;5031370;28;20692;-89
2021/07/01 01:48:40;;;;;;;0.20;0.20;;;;;;;14.32;98.17;100257.03;5049486;28;20057;-87
2021/07/01 01:51:13;;;;;;;0.20;0.20;;;;;;;14.32;98.33;100258.97;5030242;28;20052;-87
2021/07/01 01:53:42;;;;;;;0.20;0.20;;;;;;;14.35;97.98;100253.66;5031534;28;20048;-88
2021/07/01 01:56:19;;;;;;;0.20;0.20;;;;;;;14.29;98.31;100239.31;5030260;28;20053;-87
2021/07/01 01:58:54;;;;;;;0.13;0.13;;;;;;;14.32;97.92;100251.56;5031242;28;20413;-89
2021/07/01 02:01:48;;;;;;;0.20;0.20;;;;;;;14.33;98.67;100255.09;5055536;28;20583;-87
2021/07/01 02:04:35;;;;;;;0.20;0.20;;;;;;;14.36;98.41;100246.25;5047671;28;20064;-88
2021/07/01 02:07:05;;;;;;;0.15;0.15;;;;;;;14.34;98.27;100238.38;5058762;28;20048;-87
2021/07/01 02:09:59;;;;;;;0.20;0.20;;;;;;;14.28;98.15;100234.97;5069006;28;20060;-86
2021/07/01 02:12:29;;;;;;;0.20;0.20;;;;;;;14.38;98.05;100236.59;5045811;28;20052;-85
2021/07/01 02:15:07;;;;;;;0.10;0.10;;;;;;;14.40;97.90;100239.84;5042871;28;20049;-86
2021/07/01 02:17:45;;;;;;;0.20;0.20;;;;;;;14.42;98.35;100240.31;5032069;28;20053;-89
2021/07/01 02:20:17;;;;;;;0.20;0.20;;;;;;;14.44;98.74;100226.31;5044584;28;20421;-87
2021/07/01 02:22:51;;;;;;;0.20;0.20;;;;;;;14.48;98.36;100230.03;5021500;28;20064;-87
2021/07/01 02:25:33;;;;;;;0.10;0.10;;;;;;;14.41;98.21;100230.50;5024854;28;20040;-86
2021/07/01 02:28:17;;;;;;;0.10;0.10;;;;;;;14.39;97.92;100227.28;5039370;28;20057;-88
2021/07/01 02:31:22;;;;;;;0.10;0.10;;;;;;;14.45;97.65;100239.69;5046920;28;20076;-87
2021/07/01 02:33:56;;;;;;;0.20;0.20;;;;;;;14.39;98.44;100224.53;5041508;28;20045;-88
2021/07/01 02:36:49;;;;;;;0.20;0.20;;;;;;;14.49;97.88;100237.13;5044841;28;20061;-88
2021/07/01 02:39:49;;;;;;;0.20;0.20;;;;;;;14.41;98.26;100224.22;5012314;28;20060;-88
2021/07/01 02:42:24;;;;;;;0.10;0.10;;;;;;;14.46;97.77;100226.81;5047084;28;20041;-85
2021/07/01 02:44:58;;;;;;;0.20;0.20;;;;;;;14.40;97.77;100226.16;5028145;28;20080;-88
2021/07/01 02:47:50;;;;;;;0.20;0.20;;;;;;;14.39;98.22;100226.44;5026478;28;20056;-87
2021/07/01 02:50:18;;;;;;;0.10;0.10;;;;;;;14.45;98.82;100242.44;5024700;28;20071;-88
2021/07/01 02:52:53;;;;;;;0.20;0.20;;;;;;;14.38;98.90;100233.88;5026166;28;20049;-87
2021/07/01 02:55:27;;;;;;;0.20;0.20;;;;;;;14.44;98.87;100240.00;5046664;28;20053;-89
2021/07/01 02:58:04;;;;;;;0.10;0.10;;;;;;;14.42;98.70;100240.31;5045297;28;20064;-89
2021/07/01 03:00:57;;;;;;;0.20;0.20;;;;;;;14.44;98.49;100240.84;5044398;28;20057;-85
2021/07/01 03:03:31;;;;;;;0.20;0.20;;;;;;;14.44;98.19;100229.88;5028793;28;20053;-87
2021/07/01 03:06:11;;;;;;;0.20;0.20;;;;;;;14.50;98.46;100241.50;5027072;28;20053;-86
2021/07/01 03:08:46;;;;;;;0.20;0.20;;;;;;;14.54;98.67;100245.22;5021965;28;20049;-86
2021/07/01 03:11:20;;;;;;;0.30;0.30;;;;;;;14.51;98.65;100247.75;5023086;28;20059;-88
2021/07/01 03:13:58;;;;;;;0.20;0.20;;;;;;;14.56;98.85;100247.63;5023246;28;20068;-88
2021/07/01 03:16:34;;;;;;;0.25;0.25;;;;;;;14.53;98.42;100245.50;5011776;28;20072;-88
2021/07/01 03:19:07;;;;;;;0.20;0.20;;;;;;;14.41;98.84;100241.44;5047147;28;20063;-87
2021/07/01 03:22:00;;;;;;;0.20;0.20;;;;;;;14.46;98.26;100240.50;5050670;28;20064;-85
2021/07/01 03:24:35;;;;;;;0.28;0.28;;;;;;;14.45;99.05;100242.44;5043272;28;20060;-90
2021/07/01 03:27:06;;;;;;;0.30;0.30;;;;;;;14.46;98.93;100244.03;5024396;28;20041;-86
2021/07/01 03:29:37;;;;;;;0.22;0.22;;;;;;;14.45;98.93;100239.69;5045273;28;20067;-88
2021/07/01 03:32:16;;;;;;;0.20;0.20;;;;;;;14.44;99.61;100246.31;5028286;28;20056;-88
2021/07/01 03:34:49;;;;;;;0.30;0.30;;;;;;;14.44;98.96;100231.78;5028990;28;20416;-89
2021/07/01 03:37:42;;;;;;;0.20;0.20;;;;;;;14.51;98.86;100239.56;5046798;28;20057;-89
2021/07/01 03:40:28;;;;;;;0.30;0.30;;;;;;;14.51;98.62;100242.28;5028342;28;20048;-88
2021/07/01 03:43:02;;;;;;;0.20;0.20;;;;;;;14.50;98.57;100235.19;5019407;28;20057;-87
2021/07/01 03:45:38;;;;;;;0.20;0.20;;;;;;;14.48;98.51;100230.03;5029951;28;20044;-88
2021/07/01 03:48:12;;;;;;;0.20;0.20;;;;;;;14.46;98.27;100237.78;5028831;28;20061;-88
2021/07/01 03:51:06;;;;;;;0.20;0.20;;;;;;;14.47;98.31;100233.88;5041980;28;20418;-87
2021/07/01 03:53:54;;;;;;;0.20;0.20;;;;;;;14.52;98.76;100236.50;5015830;28;20065;-88
2021/07/01 03:56:40;;;;;;;0.20;0.20;;;;;;;14.53;98.88;100238.13;5026310;28;20060;-87
2021/07/01 03:59:19;;;;;;;0.25;0.25;;;;;;;14.50;99.02;100235.19;5022572;28;20066;-88
2021/07/01 04:02:12;;;;;;;0.20;0.20;;;;;;;14.51;99.31;100234.88;5054857;28;20060;-87
2021/07/01 04:04:41;;;;;;;0.22;0.22;;;;;;;14.55;99.15;100238.59;5032829;28;20416;-88
2021/07/01 04:07:14;;;;;;;0.20;0.20;;;;;;;14.58;99.22;100239.88;5025096;28;20512;-88
2021/07/01 04:09:48;;;;;;;0.22;0.22;;;;;;;14.54;98.79;100230.69;5025339;28;20064;-87
2021/07/01 04:12:41;;;;;;;0.20;0.20;;;;;;;14.54;99.11;100236.16;5026238;28;20528;-87
2021/07/01 04:15:40;;;;;;;0.30;0.30;;;;;;;14.46;99.31;100235.84;5033767;28;20049;-88
2021/07/01 04:18:34;;;;;;;0.20;0.20;;;;;;;14.52;98.70;100241.19;5041080;28;20448;-88
2021/07/01 04:21:27;;;;;;;0.20;0.20;;;;;;;14.59;98.80;100244.25;5047771;28;20064;-89
2021/07/01 04:24:29;;;;;;;0.43;0.20;;;;;;;14.59;99.28;100249.72;5049884;28;20056;-88
2021/07/01 04:27:09;;;;;;;0.20;0.20;;;;;;;14.65;98.99;100245.72;5047069;28;20055;-87
2021/07/01 04:29:42;;;;;;;0.20;0.20;;;;;;;14.68;98.44;100249.78;5053392;28;20764;-88
2021/07/01 04:32:19;;;;;;;0.20;0.20;;;;;;;14.63;99.07;100245.25;5035098;28;20532;-86
2021/07/01 04:34:55;;;;;;;0.20;0.20;;;;;;;14.69;99.03;100257.66;5032242;28;20485;-89
2021/07/01 04:37:29;;;;;;;0.20;0.20;;;;;;;14.72;98.55;100256.22;5046994;28;20504;-86
2021/07/01 04:40:06;;;;;;;0.20;0.20;;;;;;;14.77;98.77;100254.16;5023289;28;20061;-88
2021/07/01 04:42:45;;;;;;;0.20;0.20;;;;;;;14.72;98.54;100254.31;5018920;28;20053;-87
2021/07/01 04:45:19;;;;;;;0.35;0.20;;;;;;;14.74;98.72;100251.25;5040502;28;20061;-89
2021/07/01 04:47:53;;;;;;;0.20;0.20;;;;;;;14.86;98.31;100256.09;5046294;28;20047;-88
2021/07/01 04:50:28;;;;;;;0.20;0.20;;;;;;;14.85;98.58;100258.03;5027477;28;20750;-88
2021/07/01 04:53:20;;;;;;;0.20;0.20;;;;;;;14.78;98.10;100249.50;5040443;28;20060;-90
2021/07/01 04:56:13;;;;;;;0.20;0.20;;;;;;;14.82;98.67;100261.44;5055167;28;20555;-88
2021/07/01 04:58:59;;;;;;;0.20;0.20;;;;;;;14.84;98.53;100264.63;5025242;28;20576;-87
2021/07/01 05:01:58;;;;;;;0.22;0.22;;;;;;;14.86;98.61;100267.88;5041742;28;20053;-89
2021/07/01 05:04:50;;;;;;;0.20;0.20;;;;;;;15.00;98.51;100266.91;5056094;28;20064;-88
2021/07/01 05:07:19;;;;;;;0.20;0.20;;;;;;;14.95;98.31;100265.94;5030331;28;20045;-89
2021/07/01 05:09:53;;;;;;;0.20;0.20;;;;;;;14.92;98.34;100274.00;5023873;28;20053;-88
2021/07/01 05:13:05;;;;;;;0.20;0.20;;;;;;;14.94;98.53;100263.53;5019626;28;20056;-85
2021/07/01 05:15:38;;;;;;;0.20;0.20;;;;;;;14.94;98.83;100264.34;5045150;28;20053;-89
2021/07/01 05:18:13;;;;;;;0.20;0.20;;;;;;;14.90;98.80;100263.38;5032151;28;20276;-87
2021/07/01 05:20:43;;;;;;;0.20;0.20;;;;;;;14.87;98.75;100255.78;5027791;28;20079;-87
2021/07/01 05:23:39;;;;;;;0.20;0.20;;;;;;;14.96;98.36;100269.50;5051575;28;20052;-89
2021/07/01 05:26:30;;;;;;;0.15;0.15;;;;;;;14.99;98.92;100268.06;5043473;28;20096;-87
2021/07/01 05:29:27;;;;;;;0.22;0.22;;;;;;;14.94;98.49;100263.53;5018608;28;20084;-87
2021/07/01 05:32:19;;;;;;;0.20;0.20;;;;;;;14.91;98.44;100264.97;5051780;28;20488;-86
2021/07/01 05:35:13;;;;;;;0.20;0.20;;;;;;;14.94;98.05;100269.00;5029086;28;20061;-88
2021/07/01 05:37:53;;;;;;;0.20;0.20;;;;;;;14.94;98.77;100269.00;5019409;28;20057;-86
2021/07/01 05:40:24;;;;;;;0.20;0.20;;;;;;;14.93;98.71;100276.44;5021629;28;20056;-88
2021/07/01 05:43:00;;;;;;;0.20;0.20;;;;;;;14.87;98.35;100283.16;5016667;28;20057;-87
2021/07/01 05:45:35;;;;;;;0.20;0.20;;;;;;;14.89;98.43;100272.72;5017642;28;20053;-84
2021/07/01 05:48:09;;;;;;;0.20;0.20;;;;;;;14.82;98.61;100268.81;5032371;28;20049;-88
2021/07/01 05:50:46;;;;;;;0.20;0.20;;;;;;;14.87;98.99;100277.69;5030600;28;20045;-87
2021/07/01 05:53:27;;;;;;;0.20;0.20;;;;;;;14.83;98.84;100276.75;5043841;28;20060;-86
2021/07/01 05:56:01;;;;;;;0.20;0.20;;;;;;;14.83;98.79;100276.75;5044236;28;20056;-88
2021/07/01 05:58:35;;;;;;;0.35;0.30;;;;;;;14.87;98.74;100274.94;5033550;28;20048;-87
2021/07/01 06:01:08;;;;;;;0.30;0.30;;;;;;;14.88;99.19;100273.03;5042439;28;20045;-86
2021/07/01 06:03:41;;;;;;;0.20;0.20;;;;;;;14.86;99.25;100278.84;5026189;28;20064;-88
2021/07/01 06:06:41;;;;;;;0.20;0.20;;;;;;;14.79;98.43;100273.03;5054334;28;20064;-88
2021/07/01 06:09:26;;;;;;;0.63;0.20;;;;;;;14.79;98.78;100275.75;5043761;28;20689;-87
2021/07/01 06:12:01;;;;;;;0.20;0.20;;;;;;;14.84;98.76;100281.06;5041790;28;20069;-87
2021/07/01 06:14:35;;;;;;;0.20;0.20;;;;;;;14.83;98.79;100278.66;5017505;28;20060;-86
2021/07/01 06:17:09;;;;;;;0.20;0.20;;;;;;;14.88;98.79;100281.25;5046265;28;20053;-88
2021/07/01 06:19:49;;;;;;;0.20;0.20;;;;;;;14.86;98.96;100281.56;5013682;28;20060;-86
2021/07/01 06:22:23;;;;;;;0.20;0.20;;;;;;;14.83;99.00;100275.91;5037979;28;20045;-88
2021/07/01 06:24:57;;;;;;;0.20;0.20;;;;;;;14.91;99.34;100281.41;5025808;28;20056;-85
2021/07/01 06:27:32;;;;;;;0.20;0.20;;;;;;;14.86;98.72;100283.50;5028187;28;20064;-87
2021/07/01 06:30:03;;;;;;;0.30;0.30;;;;;;;14.94;98.73;100290.94;5038352;28;20056;-88
2021/07/01 06:32:44;;;;;;;0.15;0.15;;;;;;;15.01;98.56;100295.94;5025614;28;20053;-87
2021/07/01 06:35:21;;;;;;;0.20;0.20;;;;;;;15.01;98.90;100290.47;5043940;28;20045;-88
2021/07/01 06:38:03;;;;;;;0.20;0.20;;;;;;;14.97;98.54;100287.56;5029903;28;20060;-87
2021/07/01 06:40:56;;;;;;;0.20;0.20;;;;;;;14.98;98.83;100286.44;5052401;28;20056;-95
2021/07/01 06:43:46;;;;;;;0.10;0.10;;;;;;;15.05;99.27;100296.91;5043479;28;20056;-88
2021/07/01 06:46:40;;;;;;;0.20;0.20;;;;;;;15.02;99.04;100298.38;5048928;28;20500;-87
2021/07/01 06:49:32;;;;;;;0.15;0.15;;;;;;;15.02;98.79;100297.56;5042335;28;20060;-88
2021/07/01 06:52:26;;;;;;;0.20;0.20;;;;;;;15.00;98.71;100300.63;5050828;28;20060;-88
2021/07/01 06:55:35;;;;;;;0.20;0.20;;;;;;;14.96;98.82;100300.44;5027013;28;20052;-88
2021/07/01 06:58:16;;;;;;;0.20;0.20;;;;;;;15.05;99.02;100297.75;5024135;28;20479;-87
2021/07/01 07:00:51;;;;;;;0.10;0.10;;;;;;;15.04;98.95;100292.56;5043030;28;20049;-87
2021/07/01 07:03:26;;;;;;;0.20;0.20;;;;;;;14.99;98.91;100288.03;5027244;28;20049;-87
2021/07/01 07:05:56;;;;;;;0.15;0.15;;;;;;;15.05;98.87;100299.66;5040894;28;20235;-88
2021/07/01 07:08:31;;;;;;;0.20;0.20;;;;;;;15.13;99.14;100302.44;5039957;28;20047;-88
2021/07/01 07:11:04;;;;;;;0.20;0.20;;;;;;;15.18;98.72;100303.38;5024657;28;20049;-87
2021/07/01 07:13:33;;;;;;;0.10;0.10;;;;;;;15.11;99.32;100299.19;5025237;28;20079;-87
2021/07/01 07:16:10;;;;;;;0.20;0.20;;;;;;;15.21;99.22;100305.50;5037955;28;20049;-87
2021/07/01 07:18:49;;;;;;;0.20;0.20;;;;;;;15.14;99.41;100301.28;5045598;28;20041;-87
2021/07/01 07:21:33;;;;;;;0.20;0.20;;;;;;;15.27;99.12;100315.19;5027650;28;20064;-85
2021/07/01 07:24:09;;;;;;;0.20;0.20;;;;;;;15.22;98.92;100307.09;5020800;28;20049;-87
2021/07/01 07:26:43;;;;;;;0.10;0.10;;;;;;;15.27;98.94;100307.78;5023253;28;20052;-86
2021/07/01 07:29:23;;;;;;;0.20;0.20;;;;;;;15.11;98.50;100301.13;5023519;28;20072;-87
2021/07/01 07:31:59;;;;;;;0.20;0.20;;;;;;;15.24;98.87;100313.88;5020009;28;20049;-86
2021/07/01 07:34:34;;;;;;;0.20;0.20;;;;;;;15.28;98.52;100308.56;5018683;28;20053;-84
2021/07/01 07:37:08;;;;;;;0.20;0.20;;;;;;;15.33;98.87;100310.34;5039218;28;20306;-85
2021/07/01 07:39:36;;;;;;;0.10;0.10;;;;;;;15.32;98.56;100314.22;5022208;28;20397;-85
2021/07/01 07:42:11;;;;;;;0.10;0.10;;;;;;;15.26;98.28;100295.19;5038456;28;20066;-84
2021/07/01 07:44:45;;;;;;;0.10;0.10;;;;;;;15.29;98.44;100300.03;5042362;28;21296;-87
2021/07/01 07:47:21;;;;;;;0.20;0.20;;;;;;;15.41;97.83;100306.81;5040739;28;20095;-84
2021/07/01 07:49:55;;;;;;;0.20;0.20;;;;;;;15.33;98.01;100299.38;5018782;28;20048;-85
2021/07/01 07:52:32;;;;;;;0.10;0.10;;;;;;;15.38;98.13;100307.44;5018380;28;20053;-86
2021/07/01 07:55:06;;;;;;;0.10;0.10;;;;;;;15.33;97.75;100300.19;5039817;28;20524;-86
2021/07/01 07:57:44;;;;;;;0.20;0.20;;;;;;;15.34;98.13;100303.75;5014106;28;20292;-85
2021/07/01 08:00:19;;;;;;;0.20;0.20;;;;;;;15.22;98.55;100288.72;5037799;28;20821;-86
2021/07/01 08:02:55;;;;;;;0.13;0.13;;;;;;;15.22;97.78;100298.88;5039119;28;20056;-87
2021/07/01 08:05:31;;;;;;;0.20;0.20;;;;;;;15.26;98.08;100306.16;5021531;28;20679;-87
2021/07/01 08:08:05;;;;;;;0.20;0.20;;;;;;;15.29;97.94;100304.72;5039135;28;20048;-85
2021/07/01 08:10:41;;;;;;;0.20;0.20;;;;;;;15.36;97.88;100306.97;5043592;28;20053;-85
2021/07/01 08:13:09;;;;;;;0.20;0.20;;;;;;;15.36;98.52;100313.25;5017479;28;20057;-88
2021/07/01 08:15:43;;;;;;;0.10;0.10;;;;;;;15.40;98.45;100316.19;5042131;28;20739;-87
2021/07/01 08:18:21;;;;;;;0.13;0.13;;;;;;;15.40;98.14;100307.94;5040035;28;20055;-85
2021/07/01 08:20:57;;;;;;;0.10;0.10;;;;;;;15.45;98.49;100321.47;5027060;28;20052;-85
2021/07/01 08:23:31;;;;;;;0.20;0.20;;;;;;;15.51;98.22;100322.13;5023239;28;20065;-87
2021/07/01 08:26:06;;;;;;;0.10;0.10;;;;;;;15.51;98.58;100319.38;5043237;28;20420;-84
2021/07/01 08:28:40;;;;;;;0.20;0.20;;;;;;;15.50;97.89;100315.84;5021880;28;20060;-85
2021/07/01 08:31:16;;;;;;;0.20;0.20;;;;;;;15.51;98.23;100320.22;5038299;28;20045;-85
2021/07/01 08:33:47;;;;;;;0.10;0.10;;;;;;;15.47;98.32;100316.50;5055360;28;20044;-86
2021/07/01 08:36:23;;;;;;;0.60;0.20;;;;;;;15.53;98.86;100322.63;5044167;28;20045;-86
2021/07/01 08:38:57;;;;;;;0.20;0.20;;;;;;;15.50;98.34;100326.81;5031229;28;20064;-86
2021/07/01 08:41:31;;;;;;;0.20;0.20;;;;;;;15.52;98.34;100313.56;5014962;28;20049;-85
2021/07/01 08:44:02;;;;;;;0.20;0.20;;;;;;;15.59;98.28;100319.41;5019174;28;21657;-84
2021/07/01 08:46:47;;;;;;;0.20;0.20;;;;;;;15.60;98.37;100326.47;5021832;28;20067;-85
2021/07/01 08:49:34;;;;;;;0.20;0.20;;;;;;;15.65;98.60;100331.03;5044264;28;20045;-86
2021/07/01 08:52:08;;;;;;;0.20;0.20;;;;;;;15.70;98.42;100325.38;5042631;28;20057;-83
2021/07/01 08:54:44;;;;;;;0.20;0.20;;;;;;;15.78;97.73;100326.50;5020931;28;20079;-86
2021/07/01 08:57:20;;;;;;;0.13;0.13;;;;;;;15.63;97.43;100317.63;5021563;28;20060;-87
2021/07/01 09:00:01;;;;;;;0.20;0.20;;;;;;;15.70;98.15;100328.13;5020602;28;20045;-85
2021/07/01 09:02:40;;;;;;;0.20;0.20;;;;;;;15.83;98.61;100331.06;5040755;28;20048;-86
2021/07/01 09:05:12;;;;;;;0.20;0.20;;;;;;;15.78;98.36;100315.50;5023381;28;20771;-86
2021/07/01 09:07:49;;;;;;;0.10;0.10;;;;;;;15.84;98.44;100330.72;5025744;28;20056;-86
2021/07/01 09:10:24;;;;;;;;;;;;;;;15.86;98.19;100336.69;5047362;28;20061;-85
2021/07/01 09:13:03;;;;;;;0.20;0.20;;;;;;;15.89;98.52;100329.75;5025911;28;19929;-87
2021/07/01 09:15:37;;;;;;;0.20;0.20;;;;;;;15.86;98.50;100327.66;5045316;28;20067;-84
2021/07/01 09:18:14;;;;;;;0.20;0.20;;;;;;;15.92;98.45;100340.91;5027304;28;20064;-87
2021/07/01 09:20:52;;;;;;;0.20;0.20;;;;;;;15.96;98.46;100336.38;5045900;28;20056;-86
2021/07/01 09:23:30;;;;;;;0.20;0.20;;;;;;;15.89;98.45;100327.81;5022196;28;20056;-86
2021/07/01 09:26:10;;;;;;;0.20;0.20;;;;;;;15.94;98.58;100335.88;5025801;28;20149;-86
2021/07/01 09:28:40;;;;;;;0.20;0.20;;;;;;;16.02;98.83;100330.69;5043815;28;20052;-87
2021/07/01 09:31:10;;;;;;;0.20;0.20;;;;;;;16.00;98.63;100341.19;5046085;28;20051;-86
2021/07/01 09:33:47;;;;;;;0.20;0.20;;;;;;;16.01;98.79;100337.34;5025673;28;20048;-85
2021/07/01 09:36:20;;;;;;;0.20;0.20;;;;;;;16.10;99.03;100332.63;5049815;28;20063;-87
2021/07/01 09:38:56;;;;;;;0.20;0.20;;;;;;;16.12;98.53;100341.34;5028425;28;20572;-84
2021/07/01 09:41:25;;;;;;;0.20;0.20;;;;;;;16.01;98.34;100327.16;5030033;28;20148;-87
2021/07/01 09:44:01;;;;;;;0.20;0.20;;;;;;;16.14;98.30;100342.63;5044368;28;21502;-86
2021/07/01 09:46:37;;;;;;;0.10;0.10;;;;;;;16.18;98.49;100336.50;5023845;28;20060;-86
2021/07/01 09:49:11;;;;;;;0.20;0.20;;;;;;;16.25;98.79;100345.81;5024475;28;20060;-86
2021/07/01 09:51:48;;;;;;;0.20;0.20;;;;;;;16.39;97.92;100337.41;5042211;28;20055;-86
2021/07/01 09:54:23;;;;;;;0.17;0.17;;;;;;;16.35;97.63;100343.88;5042284;28;20832;-85
2021/07/01 09:57:00;;;;;;;0.20;0.20;;;;;;;16.36;98.09;100343.53;5026013;28;20142;-87
2021/07/01 09:59:41;;;;;;;0.20;0.20;;;;;;;16.49;98.33;100342.53;5048777;28;20060;-86
2021/07/01 10:02:16;;;;;;;0.10;0.10;;;;;;;16.57;98.14;100349.16;5023051;28;20566;-87
2021/07/01 10:04:50;;;;;;;0.10;0.10;;;;;;;16.64;98.81;100345.88;5040650;28;20045;-85
2021/07/01 10:07:27;;;;;;;0.38;0.20;;;;;;;16.82;98.36;100349.34;5053325;28;20052;-87
2021/07/01 10:09:58;;;;;;;0.15;0.15;;;;;;;16.88;97.55;100352.75;5043623;28;20084;-87
2021/07/01 10:12:34;;;;;;;0.10;0.10;;;;;;;16.89;96.21;100346.94;5024296;28;20053;-86
2021/07/01 10:15:08;;;;;;;0.20;0.20;;;;;;;16.78;97.28;100337.44;5047836;28;20057;-88
2021/07/01 10:18:02;;;;;;;0.17;0.17;;;;;;;16.85;96.33;100354.22;5027385;28;20055;-88
2021/07/01 10:20:39;;;;;;;0.10;0.10;;;;;;;16.86;95.53;100357.75;5042670;28;20056;-87
2021/07/01 10:23:22;;;;;;;0.10;0.10;;;;;;;16.81;96.16;100358.75;5024821;28;20056;-86
2021/07/01 10:26:09;;;;;;;0.30;0.20;;;;;;;17.06;94.04;100353.50;5044473;28;20055;-88
2021/07/01 10:28:58;;;;;;;0.20;0.20;;;;;;;17.01;95.04;100362.72;5045058;28;20053;-86
2021/07/01 10:31:27;;;;;;;0.10;0.10;;;;;;;16.83;96.41;100354.53;5026712;28;20052;-87
2021/07/01 10:33:59;;;;;;;0.20;0.20;;;;;;;16.80;96.46;100359.88;5025959;28;20063;-87
2021/07/01 10:36:28;;;;;;;0.20;0.20;;;;;;;16.79;95.01;100363.75;5027642;28;20060;-87
2021/07/01 10:38:58;;;;;;;0.20;0.20;;;;;;;16.74;95.67;100362.00;5023613;28;20067;-87
2021/07/01 10:41:27;;;;;;;0.20;0.20;;;;;;;16.88;95.97;100364.53;5026888;28;20485;-87
2021/07/01 10:44:02;;;;;;;0.20;0.20;;;;;;;16.89;96.07;100362.63;5022560;28;20056;-86
2021/07/01 10:46:38;;;;;;;0.22;0.20;;;;;;;16.72;96.24;100361.53;5041612;28;20048;-87
2021/07/01 10:49:12;;;;;;;0.13;0.13;;;;;;;16.76;96.32;100370.72;5016773;28;20429;-88
2021/07/01 10:51:54;;;;;;;0.13;0.13;;;;;;;16.88;95.34;100370.03;5019583;28;20421;-86
2021/07/01 10:54:29;;;;;;;0.17;0.17;;;;;;;16.83;95.97;100373.78;5024968;28;20705;-84
2021/07/01 10:57:06;;;;;;;0.20;0.20;;;;;;;16.79;97.01;100363.75;5027782;28;20067;-86
2021/07/01 10:59:54;;;;;;;0.10;0.10;;;;;;;16.82;96.41;100374.09;5024228;28;20061;-85
2021/07/01 11:02:29;;;;;;;0.17;0.17;;;;;;;16.84;96.78;100367.13;5040004;28;20070;-86
2021/07/01 11:05:06;;;;;;;0.20;0.20;;;;;;;16.90;96.63;100362.28;5026439;28;20056;-88
2021/07/01 11:07:44;;;;;;;0.55;0.22;;;;;;;16.82;96.88;100354.84;5038972;28;20045;-87
2021/07/01 11:10:15;;;;;;;0.20;0.20;;;;;;;16.88;96.33;100369.25;5041512;28;20055;-86
2021/07/01 11:12:47;;;;;;;0.10;0.10;;;;;;;16.88;96.00;100366.50;5027604;28;20063;-87
2021/07/01 11:15:20;;;;;;;0.20;0.20;;;;;;;16.88;95.68;100358.25;5041722;28;20048;-87
2021/07/01 11:18:08;;;;;;;0.13;0.13;;;;;;;17.05;97.16;100371.13;5023525;28;20068;-86
2021/07/01 11:20:41;;;;;;;0.20;0.20;;;;;;;17.08;96.57;100371.28;5036560;28;20737;-86
2021/07/01 11:23:21;;;;;;;0.10;0.10;;;;;;;17.08;95.18;100378.69;5021674;28;20064;-87
2021/07/01 11:25:57;;;;;;;0.20;0.20;;;;;;;17.18;96.14;100367.34;5023755;28;20056;-86
2021/07/01 11:28:30;;;;;;;0.30;0.10;;;;;;;17.20;94.55;100372.50;5042833;28;20813;-87
2021/07/01 11:31:00;;;;;;;0.10;0.10;;;;;;;17.27;94.88;100392.03;5026184;28;20072;-86
2021/07/01 11:33:29;;;;;;;0.20;0.20;;;;;;;17.42;94.62;100377.69;5044270;28;20048;-87
2021/07/01 11:36:11;;;;;;;0.20;0.20;;;;;;;17.45;94.03;100381.72;5021957;28;20053;-87
2021/07/01 11:38:43;;;;;;;0.20;0.20;;;;;;;17.52;94.05;100382.00;5041368;28;21455;-86
2021/07/01 11:41:14;;;;;;;0.20;0.20;;;;;;;17.43;95.39;100384.81;5025637;28;20053;-86
2021/07/01 11:43:48;;;;;;;0.10;0.10;;;;;;;17.33;93.79;100375.00;5042548;28;20052;-84
2021/07/01 11:46:22;;;;;;;0.10;0.10;;;;;;;17.42;93.88;100383.19;5041768;28;20049;-87
2021/07/01 11:48:55;;;;;;;0.20;0.20;;;;;;;17.52;93.54;100393.00;5016896;28;20060;-85
2021/07/01 11:51:28;;;;;;;0.20;0.20;;;;;;;17.63;92.21;100405.22;5023081;28;20080;-86
2021/07/01 11:54:03;;;;;;;0.20;0.20;;;;;;;17.74;91.92;100396.59;5042909;28;20061;-85
2021/07/01 11:56:58;;;;;;;0.20;0.20;;;;;;;17.70;93.53;100396.44;5016329;28;20056;-86
2021/07/01 11:59:32;;;;;;;0.20;0.20;;;;;;;17.63;94.23;100399.72;5045812;28;20052;-85
2021/07/01 12:02:06;;;;;;;0.20;0.20;;;;;;;17.56;95.25;100401.41;5024668;28;20748;-86
2021/07/01 12:04:36;;;;;;;0.10;0.10;;;;;;;17.57;93.73;100403.81;5044487;28;20048;-86
2021/07/01 12:07:22;;;;;;;0.17;0.17;;;;;;;17.52;93.85;100409.50;5025322;28;20067;-82
2021/07/01 12:09:57;;;;;;;0.25;0.20;;;;;;;17.33;93.67;100413.50;5045534;28;20053;-87
2021/07/01 12:12:35;;;;;;;0.20;0.20;;;;;;;17.33;94.92;100409.94;5035842;28;20053;-86